WetterOnline ( https://www.wetteronline.de )

Wetter aktuell Asbach

Aktuelles Wetter: Königswinter-Heiderhof (147m)

6-stündlich | Neueste Meldungen
Ortszeit Temperatur Wetter
So, 19.09. 8:00 11.6° C wolkenlos
So, 19.09. 2:00 14.1° C bewölkt
Sa, 18.09. 20:00 17.7° C fast wolkenlos
Sa, 18.09. 14:00 20.2° C wolkig
Sa, 18.09. 8:00 10.9° C Nebel
Sa, 18.09. 2:00 13.0° C wolkig
Fr, 17.09. 20:00 17.1° C wolkig
Fr, 17.09. 14:00 18.3° C leicht bewölkt
Ortszeit Temperatur Wetter
So, 19.09. 11:00 16.4° C wolkig
So, 19.09. 10:50 16.4° C wolkig
So, 19.09. 10:40 16.0° C wolkig
So, 19.09. 10:30 15.7° C wolkig
So, 19.09. 10:20 15.7° C wolkig
So, 19.09. 10:10 15.5° C wolkig
So, 19.09. 10:00 14.9° C wolkig
So, 19.09. 9:30 14.2° C wolkig
So, 19.09. 9:00 13.4° C leicht bewölkt
So, 19.09. 8:30 12.4° C leicht bewölkt
So, 19.09. 8:00 11.6° C wolkenlos
Ortszeit Relative Feuchte Sichtweite
So, 19.09. 8:00 89% 60 km
So, 19.09. 2:00 78% 60 km
Sa, 18.09. 20:00 70% 40 km
Sa, 18.09. 14:00 57% 35 km
Sa, 18.09. 8:00 99% 0.2 km
Sa, 18.09. 2:00 93% 12 km
Fr, 17.09. 20:00 75% 26 km
Fr, 17.09. 14:00 70% 17 km
Ortszeit Relative Feuchte Sichtweite
So, 19.09. 11:00 70% 23 km
So, 19.09. 10:50 70% -
So, 19.09. 10:40 70% -
So, 19.09. 10:30 74% 30 km
So, 19.09. 10:20 74% -
So, 19.09. 10:10 76% -
So, 19.09. 10:00 78% 14 km
So, 19.09. 9:30 81% 55 km
So, 19.09. 9:00 84% 50 km
So, 19.09. 8:30 86% 40 km
So, 19.09. 8:00 89% 60 km
Ortszeit Niederschlagsmenge Niederschlagsart
So, 19.09. 8:00 0.0 l/m2 in 12 Std. -
So, 19.09. 2:00 0.0 l/m2 in 6 Std. -
Sa, 18.09. 20:00 0.0 l/m2 in 12 Std. -
Sa, 18.09. 14:00 0.0 l/m2 in 6 Std. -
Sa, 18.09. 8:00 0.0 l/m2 in 12 Std. -
Sa, 18.09. 2:00 0.0 l/m2 in 6 Std. -
Fr, 17.09. 20:00 0.0 l/m2 in 12 Std. -
Fr, 17.09. 14:00 0.0 l/m2 in 6 Std. -
Ortszeit Niederschlagsmenge Niederschlagsart
So, 19.09. 11:00 0.1 l/m2 in 1 Std. Sprühregen
So, 19.09. 10:50 keine Meldung -
So, 19.09. 10:40 keine Meldung -
So, 19.09. 10:30 0.0 l/m2 in 1 Std. -
So, 19.09. 10:20 keine Meldung -
So, 19.09. 10:10 keine Meldung -
So, 19.09. 10:00 0.0 l/m2 in 1 Std. -
So, 19.09. 9:30 0.0 l/m2 in 1 Std. -
So, 19.09. 9:00 0.0 l/m2 in 1 Std. -
So, 19.09. 8:30 0.0 l/m2 in 1 Std. -
So, 19.09. 8:00 0.0 l/m2 in 1 Std. -
Ortszeit Stärke Spitze Richtung
km/h Bft. km/h Grad Sektor
So, 19.09. 8:00 4 1 11 80° O
So, 19.09. 2:00 2 1 13 140° SO
Sa, 18.09. 20:00 0 0 22 - -
Sa, 18.09. 14:00 6 1 15 80° O
Sa, 18.09. 8:00 6 1 9 260° W
Sa, 18.09. 2:00 4 1 11 30° NO
Fr, 17.09. 20:00 4 1 14 160° S
Fr, 17.09. 14:00 4 1 18 80° O
Ortszeit Stärke Spitze Richtung
km/h Bft. km/h Grad Sektor
So, 19.09. 11:00 20 4 30 130° SO
So, 19.09. 10:50 20 4 - 130° SO
So, 19.09. 10:40 20 4 - 120° SO
So, 19.09. 10:30 14 3 25 130° SO
So, 19.09. 10:20 14 3 - 130° SO
So, 19.09. 10:10 14 3 - 130° SO
So, 19.09. 10:00 11 2 18 100° O
So, 19.09. 9:30 7 2 14 140° SO
So, 19.09. 9:00 4 1 14 180° S
So, 19.09. 8:30 7 2 11 100° O
So, 19.09. 8:00 4 1 11 80° O
Ortszeit Untergrenze Bedeckung Gattung
total tief tief mittel hoch
So, 19.09. 8:00 - 0/8 0/8 - - -
So, 19.09. 2:00 1170 m 7/8 7/8 - - -
Sa, 18.09. 20:00 10500 m 2/8 0/8 - - -
Sa, 18.09. 14:00 8700 m 8/8 0/8 - - -
Sa, 18.09. 8:00 8700 m 8/8 0/8 - - -
Sa, 18.09. 2:00 1500 m 7/8 1/8 - - -
Fr, 17.09. 20:00 8400 m 8/8 0/8 - - -
Fr, 17.09. 14:00 9000 m 6/8 0/8 - - -
Ortszeit Bedeckungsgrad in Achtel und Wolkenuntergrenze
So, 19.09. 11:00 7(9000m) 8(10500m)
So, 19.09. 10:50 7(9000m) 8(10500m)
So, 19.09. 10:40 6(9000m) 8(10500m)
So, 19.09. 10:30 3(10500m) 7(10500m)
So, 19.09. 10:20 3(10500m) 7(10500m)
So, 19.09. 10:10 6(10500m) 7(10500m)
So, 19.09. 10:00 8(10500m) 7(10500m)
So, 19.09. 9:30 7(9000m)
So, 19.09. 9:00 2(9000m) 5(10500m)
So, 19.09. 8:30 4(10500m)
So, 19.09. 8:00 keine Wolken
Ortszeit Luftdruck NN (hPa) Tendenz (hPa in 3 Std.)
So, 19.09. 8:00 1015 0,0
So, 19.09. 2:00 1016 - 0,2
Sa, 18.09. 20:00 1015 - 0,5
Sa, 18.09. 14:00 1017 - 0,5
Sa, 18.09. 8:00 1017 + 0,6
Sa, 18.09. 2:00 1017 + 0,4
Fr, 17.09. 20:00 1015 - 0,4
Fr, 17.09. 14:00 1017 - 0,4
Ortszeit Luftdruck NN (hPa) Tendenz (hPa in 3 Std.)
So, 19.09. 11:00 1015 + 0,6
So, 19.09. 10:50 1015 keine Meldung
So, 19.09. 10:40 1015 keine Meldung
So, 19.09. 10:30 1015 + 0,5
So, 19.09. 10:20 1015 keine Meldung
So, 19.09. 10:10 1015 keine Meldung
So, 19.09. 10:00 1015 + 0,2
So, 19.09. 9:30 1015 + 0,3
So, 19.09. 9:00 1015 + 0,4
So, 19.09. 8:30 1015 + 0,3
So, 19.09. 8:00 1015 0,0
Ortszeit Schneehöhe (cm)
So, 19.09. 8:00 -
So, 19.09. 2:00 -
Sa, 18.09. 20:00 -
Sa, 18.09. 14:00 -
Sa, 18.09. 8:00 -
Sa, 18.09. 2:00 -
Fr, 17.09. 20:00 -
Fr, 17.09. 14:00 -
Ortszeit Schneehöhe (cm)
So, 19.09. 11:00 -
So, 19.09. 10:50 -
So, 19.09. 10:40 -
So, 19.09. 10:30 -
So, 19.09. 10:20 -
So, 19.09. 10:10 -
So, 19.09. 10:00 -
So, 19.09. 9:30 -
So, 19.09. 9:00 -
So, 19.09. 8:30 -
So, 19.09. 8:00 -
Link zu dieser Seite / Seite empfehlen

Das Wetter in ...